createdAt,value
2023-04-21T00:00:33.161Z,27.22
2023-04-21T00:01:33.219Z,27.21
2023-04-21T00:02:35.879Z,27.28
2023-04-21T00:03:33.520Z,27.28
2023-04-21T00:04:33.384Z,27.25
2023-04-21T00:05:33.428Z,27.28
2023-04-21T00:06:33.274Z,27.27
2023-04-21T00:07:33.226Z,27.25
2023-04-21T00:08:33.253Z,27.24
2023-04-21T00:09:33.226Z,27.25
2023-04-21T00:10:33.217Z,27.26
2023-04-21T00:11:33.223Z,27.25
2023-04-21T00:12:33.195Z,27.31
2023-04-21T00:13:33.209Z,27.24
2023-04-21T00:14:33.189Z,27.21
2023-04-21T00:15:33.203Z,27.23
2023-04-21T00:16:33.382Z,27.28
2023-04-21T00:17:33.227Z,27.25
2023-04-21T00:18:33.157Z,27.23
2023-04-21T00:19:33.202Z,27.26
2023-04-21T00:20:33.180Z,27.25
2023-04-21T00:21:33.172Z,27.15
2023-04-21T00:22:33.177Z,27.25
2023-04-21T00:23:33.141Z,27.22
2023-04-21T00:24:33.157Z,27.22
2023-04-21T00:25:33.135Z,27.25
2023-04-21T00:26:33.110Z,27.28
2023-04-21T00:27:33.150Z,27.12
2023-04-21T00:28:33.124Z,27.19
2023-04-21T00:29:33.108Z,27.18
2023-04-21T00:30:33.109Z,27.19
2023-04-21T00:31:33.150Z,27.24
2023-04-21T00:32:33.110Z,27.18
2023-04-21T00:33:33.074Z,27.19
2023-04-21T00:34:33.067Z,27.14
2023-04-21T00:35:33.064Z,27.08
2023-04-21T00:36:33.044Z,27.16
2023-04-21T00:37:33.070Z,27.16
2023-04-21T00:38:33.055Z,27.18
2023-04-21T00:39:33.049Z,27.16
2023-04-21T00:40:33.011Z,27.15
2023-04-21T00:41:33.027Z,27.14
2023-04-21T00:42:32.997Z,27.11
2023-04-21T00:43:33.025Z,27.13
2023-04-21T00:44:32.998Z,27.16
2023-04-21T00:45:33.000Z,27.16
2023-04-21T00:46:33.065Z,27.14
2023-04-21T00:47:32.979Z,27.19
2023-04-21T00:48:33.001Z,27.11
2023-04-21T00:49:33.036Z,27.15
2023-04-21T00:50:33.114Z,27.12
2023-04-21T00:51:33.207Z,27.16
2023-04-21T00:52:33.206Z,27.18
2023-04-21T00:53:33.269Z,27.19
2023-04-21T00:54:33.341Z,27.08
2023-04-21T00:55:33.384Z,27.08
2023-04-21T00:56:33.410Z,27.12
2023-04-21T00:57:33.480Z,27.08
2023-04-21T00:58:33.546Z,27.02
2023-04-21T00:59:33.562Z,27.08
2023-04-21T01:00:33.602Z,27.12
2023-04-21T01:01:33.609Z,27.12
2023-04-21T01:02:33.773Z,27.13
2023-04-21T01:03:33.945Z,27.15
2023-04-21T01:04:33.792Z,27.08
2023-04-21T01:05:33.842Z,27.13
2023-04-21T01:06:33.871Z,27.12
2023-04-21T01:07:33.931Z,27.10
2023-04-21T01:08:33.985Z,27.04
2023-04-21T01:09:34.081Z,27.07
2023-04-21T01:10:34.083Z,27.08
2023-04-21T01:11:34.062Z,27.10
2023-04-21T01:12:34.113Z,27.12
2023-04-21T01:13:34.131Z,27.08
2023-04-21T01:14:34.147Z,27.06
2023-04-21T01:15:34.136Z,27.01
2023-04-21T01:16:34.177Z,27.05
2023-04-21T01:17:34.185Z,27.08
2023-04-21T01:18:34.175Z,27.07
2023-04-21T01:19:34.253Z,27.05
2023-04-21T01:20:34.242Z,27.04
2023-04-21T01:21:34.261Z,27.05
2023-04-21T01:22:34.246Z,27.04
2023-04-21T01:23:34.304Z,27.06
2023-04-21T01:24:34.307Z,27.04
2023-04-21T01:25:34.314Z,26.99
2023-04-21T01:26:34.311Z,27.06
2023-04-21T01:27:34.337Z,27.12
2023-04-21T01:28:34.371Z,27.05
2023-04-21T01:29:34.388Z,27.13
2023-04-21T01:30:34.369Z,27.02
2023-04-21T01:31:34.531Z,27.06
2023-04-21T01:32:34.432Z,27.04
2023-04-21T01:33:34.407Z,27.05
2023-04-21T01:34:34.393Z,27.01
2023-04-21T01:35:34.449Z,26.99
2023-04-21T01:36:34.458Z,27.01
2023-04-21T01:37:34.471Z,27.01
2023-04-21T01:38:34.499Z,27.04
2023-04-21T01:39:34.476Z,26.98
2023-04-21T01:40:34.510Z,27.11
2023-04-21T01:41:34.485Z,27.05
2023-04-21T01:42:34.519Z,27.07
2023-04-21T01:43:34.544Z,27.06
2023-04-21T01:44:34.544Z,27.07
2023-04-21T01:45:34.573Z,27.07
2023-04-21T01:46:34.566Z,27.04
2023-04-21T01:47:34.600Z,27.08
2023-04-21T01:48:34.575Z,27.10
2023-04-21T01:49:34.578Z,27.04
2023-04-21T01:50:34.614Z,27.11
2023-04-21T01:51:34.609Z,27.08
2023-04-21T01:52:34.592Z,27.04
2023-04-21T01:53:34.621Z,27.07
2023-04-21T01:54:34.602Z,27.03
2023-04-21T01:55:34.609Z,27.03
2023-04-21T01:56:34.633Z,27.03
2023-04-21T01:57:34.627Z,26.96
2023-04-21T01:58:34.640Z,26.99
2023-04-21T01:59:34.636Z,26.98
2023-04-21T02:00:34.615Z,26.97
2023-04-21T02:01:34.640Z,26.97
2023-04-21T02:02:34.689Z,26.95
2023-04-21T02:03:34.792Z,26.93
2023-04-21T02:04:34.763Z,26.90
2023-04-21T02:05:34.613Z,26.89
2023-04-21T02:06:34.626Z,26.83
2023-04-21T02:07:34.619Z,26.88
2023-04-21T02:08:34.666Z,26.85
2023-04-21T02:09:34.665Z,26.83
2023-04-21T02:10:34.666Z,26.78
2023-04-21T02:11:34.706Z,26.77
2023-04-21T02:12:34.732Z,26.74
2023-04-21T02:13:34.759Z,26.70
2023-04-21T02:14:34.810Z,26.73
2023-04-21T02:15:34.839Z,26.68
2023-04-21T02:16:34.857Z,26.67
2023-04-21T02:17:34.903Z,26.63
2023-04-21T02:18:34.864Z,26.66
2023-04-21T02:19:34.924Z,26.59
2023-04-21T02:20:34.952Z,26.63
2023-04-21T02:21:35.018Z,26.62
2023-04-21T02:22:35.107Z,26.56
2023-04-21T02:23:35.140Z,26.59
2023-04-21T02:24:35.189Z,26.59
2023-04-21T02:25:35.283Z,26.59
2023-04-21T02:26:35.328Z,26.58
2023-04-21T02:27:35.403Z,26.54
2023-04-21T02:28:35.409Z,26.55
2023-04-21T02:29:35.421Z,26.52
2023-04-21T02:30:35.438Z,26.51
2023-04-21T02:31:45.987Z,26.54
2023-04-21T02:32:36.592Z,26.58
2023-04-21T02:33:35.450Z,26.51
2023-04-21T02:34:35.461Z,26.53
2023-04-21T02:35:35.461Z,26.49
2023-04-21T02:36:35.447Z,26.50
2023-04-21T02:37:35.432Z,26.47
2023-04-21T02:38:35.413Z,26.52
2023-04-21T02:39:35.398Z,26.43
2023-04-21T02:40:35.411Z,26.49
2023-04-21T02:41:35.463Z,26.46
2023-04-21T02:42:35.420Z,26.40
2023-04-21T02:43:35.453Z,26.42
2023-04-21T02:44:35.387Z,26.45
2023-04-21T02:45:35.351Z,26.45
2023-04-21T02:46:35.412Z,26.43
2023-04-21T02:47:35.350Z,26.42
2023-04-21T02:48:35.362Z,26.39
2023-04-21T02:49:35.322Z,26.40
2023-04-21T02:50:35.323Z,26.41
2023-04-21T02:51:35.331Z,26.38
2023-04-21T02:52:35.331Z,26.43
2023-04-21T02:53:35.326Z,26.44
2023-04-21T02:54:35.355Z,26.35
2023-04-21T02:55:35.341Z,26.36
2023-04-21T02:56:35.385Z,26.38
2023-04-21T02:57:35.383Z,26.36
2023-04-21T02:58:35.403Z,26.39
2023-04-21T02:59:35.401Z,26.41
2023-04-21T03:00:35.471Z,26.37
2023-04-21T03:01:35.434Z,26.32
2023-04-21T03:02:35.619Z,26.39
2023-04-21T03:03:35.547Z,26.34
2023-04-21T03:04:35.533Z,26.38
2023-04-21T03:05:35.511Z,26.32
2023-04-21T03:06:35.505Z,26.38
2023-04-21T03:07:35.529Z,26.32
2023-04-21T03:08:35.550Z,26.38
2023-04-21T03:09:35.528Z,26.34
2023-04-21T03:10:35.536Z,26.34
2023-04-21T03:11:35.548Z,26.33
2023-04-21T03:12:35.569Z,26.31
2023-04-21T03:13:35.557Z,26.31
2023-04-21T03:14:35.700Z,26.30
2023-04-21T03:15:35.722Z,26.30
2023-04-21T03:16:35.854Z,26.30
2023-04-21T03:17:35.831Z,26.30
2023-04-21T03:18:35.792Z,26.30
2023-04-21T03:19:35.797Z,26.31
2023-04-21T03:20:35.806Z,26.34
2023-04-21T03:21:35.784Z,26.30
2023-04-21T03:22:35.784Z,26.28
2023-04-21T03:23:35.809Z,26.27
2023-04-21T03:24:35.818Z,26.33
2023-04-21T03:25:35.836Z,26.26
2023-04-21T03:26:35.851Z,26.21
2023-04-21T03:27:35.854Z,26.30
2023-04-21T03:28:35.868Z,26.26
2023-04-21T03:29:35.836Z,26.26
2023-04-21T03:30:35.848Z,26.31
2023-04-21T03:31:35.903Z,26.30
2023-04-21T03:32:35.934Z,26.27
2023-04-21T03:33:35.846Z,26.31
2023-04-21T03:34:35.933Z,26.29
2023-04-21T03:35:35.875Z,26.27
2023-04-21T03:36:35.864Z,26.31
2023-04-21T03:37:35.893Z,26.26
2023-04-21T03:38:35.919Z,26.29
2023-04-21T03:39:35.913Z,26.29
2023-04-21T03:40:35.933Z,26.27
2023-04-21T03:41:35.895Z,26.29
2023-04-21T03:42:35.907Z,26.26
2023-04-21T03:43:35.925Z,26.26
2023-04-21T03:44:35.940Z,26.23
2023-04-21T03:45:36.098Z,26.29
2023-04-21T03:46:35.971Z,26.23
2023-04-21T03:47:36.050Z,26.25
2023-04-21T03:48:36.047Z,26.29
2023-04-21T03:49:36.074Z,26.22
2023-04-21T03:50:36.056Z,26.23
2023-04-21T03:51:36.054Z,26.23
2023-04-21T03:52:36.066Z,26.22
2023-04-21T03:53:36.066Z,26.22
2023-04-21T03:54:36.057Z,26.21
2023-04-21T03:55:36.068Z,26.20
2023-04-21T03:56:36.067Z,26.22
2023-04-21T03:57:36.071Z,26.24
2023-04-21T03:58:36.039Z,26.26
2023-04-21T03:59:36.059Z,26.25
2023-04-21T04:00:36.050Z,26.28
2023-04-21T04:01:36.076Z,26.21
2023-04-21T04:02:36.199Z,26.19
2023-04-21T04:03:36.176Z,26.25
2023-04-21T04:04:36.125Z,26.19
2023-04-21T04:05:36.162Z,26.24
2023-04-21T04:06:36.121Z,26.18
2023-04-21T04:07:36.161Z,26.18
2023-04-21T04:08:36.237Z,26.21
2023-04-21T04:09:36.254Z,26.18
2023-04-21T04:10:36.314Z,26.18
2023-04-21T04:11:36.332Z,26.25
2023-04-21T04:12:36.347Z,26.19
2023-04-21T04:13:36.382Z,26.17
2023-04-21T04:14:36.354Z,26.18
2023-04-21T04:15:36.373Z,26.21
2023-04-21T04:16:36.334Z,26.21
2023-04-21T04:17:36.420Z,26.18
2023-04-21T04:18:36.331Z,26.17
2023-04-21T04:19:36.310Z,26.18
2023-04-21T04:20:37.332Z,26.17
2023-04-21T04:21:36.336Z,26.18
2023-04-21T04:22:36.307Z,26.17
2023-04-21T04:23:36.298Z,26.18
2023-04-21T04:24:36.285Z,26.12
2023-04-21T04:25:36.291Z,26.17
2023-04-21T04:26:36.312Z,26.15
2023-04-21T04:27:36.261Z,26.15
2023-04-21T04:28:36.293Z,26.14
2023-04-21T04:29:36.298Z,26.14
2023-04-21T04:30:36.327Z,26.19
2023-04-21T04:31:36.364Z,26.14
2023-04-21T04:32:36.350Z,26.15
2023-04-21T04:33:36.358Z,26.15
2023-04-21T04:34:36.379Z,26.14
2023-04-21T04:35:36.440Z,26.17
2023-04-21T04:36:36.452Z,26.11
2023-04-21T04:37:36.489Z,26.11
2023-04-21T04:38:36.531Z,26.14
2023-04-21T04:39:36.560Z,26.16
2023-04-21T04:40:36.572Z,26.13
2023-04-21T04:41:36.564Z,26.11
2023-04-21T04:42:36.569Z,26.14
2023-04-21T04:43:36.544Z,26.08
2023-04-21T04:44:36.542Z,26.14
2023-04-21T04:45:36.524Z,26.10
2023-04-21T04:46:36.607Z,26.17
2023-04-21T04:47:36.554Z,26.14
2023-04-21T04:48:36.573Z,26.07
2023-04-21T04:49:36.573Z,26.13
2023-04-21T04:50:36.575Z,26.08
2023-04-21T04:51:36.636Z,26.10
2023-04-21T04:52:36.542Z,26.11
2023-04-21T04:53:36.558Z,26.07
2023-04-21T04:54:36.551Z,26.04
2023-04-21T04:55:36.561Z,26.06
2023-04-21T04:56:36.543Z,26.05
2023-04-21T04:57:36.558Z,26.02
2023-04-21T04:58:36.532Z,26.06
2023-04-21T04:59:36.524Z,26.02
2023-04-21T05:00:43.554Z,26.00
2023-04-21T05:01:36.550Z,25.96
2023-04-21T05:02:36.681Z,26.00
2023-04-21T05:03:36.807Z,25.99
2023-04-21T05:04:36.675Z,26.00
2023-04-21T05:05:36.511Z,25.99
2023-04-21T05:06:36.529Z,26.02
2023-04-21T05:07:36.494Z,26.02
2023-04-21T05:08:36.490Z,25.99
2023-04-21T05:09:36.515Z,25.99
2023-04-21T05:10:36.498Z,26.01
2023-04-21T05:11:36.501Z,25.99
2023-04-21T05:12:36.467Z,26.00
2023-04-21T05:13:39.104Z,25.98
2023-04-21T05:14:36.491Z,25.96
2023-04-21T05:15:36.457Z,25.99
2023-04-21T05:16:36.486Z,25.97
2023-04-21T05:17:36.473Z,25.97
2023-04-21T05:18:36.449Z,25.99
2023-04-21T05:19:36.434Z,25.99
2023-04-21T05:20:36.415Z,25.97
2023-04-21T05:21:36.429Z,25.99
2023-04-21T05:22:36.416Z,25.92
2023-04-21T05:23:36.381Z,25.96
2023-04-21T05:24:36.378Z,25.98
2023-04-21T05:25:36.389Z,25.97
2023-04-21T05:26:36.354Z,25.94
2023-04-21T05:27:36.327Z,25.92
2023-04-21T05:28:36.377Z,25.91
2023-04-21T05:29:36.352Z,25.94
2023-04-21T05:30:36.320Z,25.91
2023-04-21T05:31:36.345Z,25.91
2023-04-21T05:32:36.416Z,25.92
2023-04-21T05:33:36.294Z,25.86
2023-04-21T05:34:36.383Z,25.68
2023-04-21T05:35:38.044Z,25.75
2023-04-21T05:36:36.279Z,25.87
2023-04-21T05:37:36.302Z,25.91
2023-04-21T05:38:36.262Z,25.96
2023-04-21T05:39:36.286Z,26.04
2023-04-21T05:40:36.275Z,26.11
2023-04-21T05:41:36.255Z,26.22
2023-04-21T05:42:36.241Z,26.25
2023-04-21T05:43:36.238Z,26.30
2023-04-21T05:44:36.320Z,26.34
2023-04-21T05:45:43.401Z,26.47
2023-04-21T05:46:36.439Z,26.60
2023-04-21T05:47:36.375Z,26.32
2023-04-21T05:48:36.365Z,26.48
2023-04-21T05:49:36.366Z,26.62
2023-04-21T05:50:36.322Z,26.72
2023-04-21T05:51:36.308Z,26.86
2023-04-21T05:52:36.328Z,26.82
2023-04-21T05:53:36.330Z,27.06
2023-04-21T05:54:36.307Z,27.05
2023-04-21T05:55:36.293Z,27.29
2023-04-21T05:56:36.311Z,27.53
2023-04-21T05:57:36.292Z,27.78
2023-04-21T05:58:36.304Z,27.82
2023-04-21T05:59:36.410Z,28.10
2023-04-21T06:00:36.285Z,28.13
2023-04-21T06:01:36.280Z,28.07
2023-04-21T06:02:36.373Z,28.15
2023-04-21T06:03:36.591Z,28.29
2023-04-21T06:04:36.452Z,28.36
2023-04-21T06:05:36.271Z,28.46
2023-04-21T06:06:36.253Z,28.57
2023-04-21T06:07:36.225Z,28.67
2023-04-21T06:08:36.221Z,28.78
2023-04-21T06:09:36.264Z,28.98
2023-04-21T06:10:36.221Z,29.02
2023-04-21T06:11:36.195Z,29.22
2023-04-21T06:12:36.192Z,29.29
2023-04-21T06:13:38.369Z,29.54
2023-04-21T06:14:36.166Z,29.63
2023-04-21T06:15:36.159Z,29.77
2023-04-21T06:16:36.274Z,29.85
2023-04-21T06:17:36.165Z,30.08
2023-04-21T06:18:36.164Z,30.22
2023-04-21T06:19:36.114Z,30.36
2023-04-21T06:20:36.125Z,30.61
2023-04-21T06:21:36.164Z,30.64
2023-04-21T06:22:36.119Z,30.85
2023-04-21T06:23:36.121Z,30.83
2023-04-21T06:24:36.109Z,30.93
2023-04-21T06:25:36.108Z,31.04
2023-04-21T06:26:36.120Z,31.21
2023-04-21T06:27:36.085Z,31.06
2023-04-21T06:28:36.127Z,31.25
2023-04-21T06:29:36.064Z,31.31
2023-04-21T06:30:36.103Z,31.46
2023-04-21T06:31:36.124Z,31.56
2023-04-21T06:32:36.145Z,31.69
2023-04-21T06:33:36.148Z,31.76
2023-04-21T06:34:36.059Z,31.76
2023-04-21T06:35:36.060Z,31.88
2023-04-21T06:36:36.051Z,31.83
2023-04-21T06:37:36.002Z,32.13
2023-04-21T06:38:35.983Z,32.25
2023-04-21T06:39:36.030Z,32.26
2023-04-21T06:40:36.021Z,32.15
2023-04-21T06:41:35.965Z,32.22
2023-04-21T06:42:35.975Z,32.42
2023-04-21T06:43:36.002Z,32.24
2023-04-21T06:44:35.956Z,32.39
2023-04-21T06:45:35.922Z,32.38
2023-04-21T06:46:36.031Z,32.58
2023-04-21T06:47:35.951Z,32.86
2023-04-21T06:48:35.944Z,32.84
2023-04-21T06:49:35.920Z,32.93
2023-04-21T06:50:35.928Z,33.17
2023-04-21T06:51:35.908Z,33.18
2023-04-21T06:52:35.884Z,33.35
2023-04-21T06:53:35.918Z,33.59
2023-04-21T06:54:35.882Z,33.70
2023-04-21T06:55:35.889Z,33.86
2023-04-21T06:56:35.856Z,34.08
2023-04-21T06:57:35.894Z,34.20
2023-04-21T06:58:35.887Z,34.33
2023-04-21T06:59:35.859Z,34.38
2023-04-21T07:00:35.858Z,34.47
2023-04-21T07:01:35.864Z,34.44
2023-04-21T07:02:35.931Z,34.36
2023-04-21T07:03:35.992Z,34.41
2023-04-21T07:04:35.907Z,34.25
2023-04-21T07:05:35.798Z,34.12
2023-04-21T07:06:35.800Z,33.97
2023-04-21T07:07:35.804Z,33.55
2023-04-21T07:08:35.775Z,33.11
2023-04-21T07:09:35.826Z,33.18
2023-04-21T07:10:35.786Z,33.08
2023-04-21T07:11:35.805Z,33.00
2023-04-21T07:12:35.787Z,32.89
2023-04-21T07:13:35.749Z,32.78
2023-04-21T07:14:35.884Z,32.68
2023-04-21T07:15:35.802Z,32.63
2023-04-21T07:16:35.900Z,32.57
2023-04-21T07:17:35.915Z,32.48
2023-04-21T07:18:35.905Z,32.45
2023-04-21T07:19:35.900Z,32.30
2023-04-21T07:20:35.902Z,32.23
2023-04-21T07:21:35.927Z,32.19
2023-04-21T07:22:35.890Z,32.13
2023-04-21T07:23:35.919Z,32.04
2023-04-21T07:24:35.943Z,32.00
2023-04-21T07:25:35.963Z,31.99
2023-04-21T07:26:35.980Z,31.86
2023-04-21T07:27:35.981Z,31.82
2023-04-21T07:28:36.030Z,31.74
2023-04-21T07:29:36.024Z,31.66
2023-04-21T07:30:36.007Z,29.92
2023-04-21T07:31:36.113Z,27.60
2023-04-21T07:32:36.066Z,27.85
2023-04-21T07:33:36.060Z,27.44
2023-04-21T07:34:36.101Z,27.56
2023-04-21T07:35:36.090Z,28.23
2023-04-21T07:36:36.174Z,27.82
2023-04-21T07:37:36.165Z,27.87
2023-04-21T07:38:36.241Z,27.93
2023-04-21T07:39:36.508Z,28.21
2023-04-21T07:40:36.360Z,28.16
2023-04-21T07:41:36.379Z,28.29
2023-04-21T07:42:36.421Z,28.45
2023-04-21T07:43:36.450Z,28.61
2023-04-21T07:44:36.479Z,28.73
2023-04-21T07:45:36.478Z,28.24
2023-04-21T07:46:36.583Z,27.60
2023-04-21T07:47:36.537Z,27.21
2023-04-21T07:48:36.544Z,27.55
2023-04-21T07:49:36.586Z,27.73
2023-04-21T07:50:36.607Z,27.94
2023-04-21T07:51:36.644Z,28.00
2023-04-21T07:52:36.664Z,28.04
2023-04-21T07:53:36.679Z,27.90
2023-04-21T07:54:36.961Z,27.95
2023-04-21T07:55:36.690Z,27.84
2023-04-21T07:56:36.734Z,27.91
2023-04-21T07:57:36.691Z,27.76
2023-04-21T07:58:36.782Z,27.66
2023-04-21T07:59:36.732Z,27.76
2023-04-21T08:00:36.821Z,27.95
2023-04-21T08:01:36.837Z,27.80
2023-04-21T08:02:36.992Z,27.82
2023-04-21T08:03:37.135Z,27.85
2023-04-21T08:04:37.705Z,27.87
2023-04-21T08:05:40.863Z,27.86
2023-04-21T08:06:37.083Z,27.91
2023-04-21T08:07:37.050Z,27.85
2023-04-21T08:08:37.054Z,27.80
2023-04-21T08:09:37.018Z,27.73
2023-04-21T08:10:37.458Z,27.66
2023-04-21T08:11:37.009Z,27.57
2023-04-21T08:12:36.990Z,27.54
2023-04-21T08:13:37.000Z,27.34
2023-04-21T08:14:37.552Z,27.16
2023-04-21T08:15:36.978Z,27.32
2023-04-21T08:16:36.996Z,27.44
2023-04-21T08:17:37.044Z,27.42
2023-04-21T08:18:36.936Z,27.46
2023-04-21T08:19:36.970Z,27.45
2023-04-21T08:20:36.959Z,27.45
2023-04-21T08:21:36.977Z,27.30
2023-04-21T08:22:36.961Z,27.30
2023-04-21T08:23:36.896Z,27.26
2023-04-21T08:24:36.892Z,27.16
2023-04-21T08:25:36.940Z,27.18
2023-04-21T08:26:36.879Z,26.99
2023-04-21T08:27:36.873Z,26.89
2023-04-21T08:28:37.233Z,26.77
2023-04-21T08:29:36.893Z,26.87
2023-04-21T08:30:36.968Z,27.20
2023-04-21T08:31:36.926Z,27.15
2023-04-21T08:32:36.915Z,27.11
2023-04-21T08:33:43.893Z,27.21
2023-04-21T08:34:37.875Z,27.15
2023-04-21T08:35:36.991Z,27.07
2023-04-21T08:36:36.834Z,26.85
2023-04-21T08:37:36.856Z,26.60
2023-04-21T08:38:36.796Z,26.68
2023-04-21T08:39:36.788Z,26.50
2023-04-21T08:40:36.794Z,26.48
2023-04-21T08:41:36.756Z,26.58
2023-04-21T08:42:36.738Z,26.56
2023-04-21T08:43:36.787Z,26.62
2023-04-21T08:44:36.755Z,26.68
2023-04-21T08:45:36.923Z,26.68
2023-04-21T08:46:36.725Z,26.68
2023-04-21T08:47:36.784Z,26.69
2023-04-21T08:48:36.702Z,26.69
2023-04-21T08:49:36.723Z,26.54
2023-04-21T08:50:36.995Z,26.41
2023-04-21T08:51:36.685Z,26.73
2023-04-21T08:52:36.768Z,27.07
2023-04-21T08:53:36.710Z,27.14
2023-04-21T08:54:36.671Z,27.14
2023-04-21T08:55:36.692Z,27.21
2023-04-21T08:56:36.655Z,27.44
2023-04-21T08:57:36.669Z,27.68
2023-04-21T08:58:36.662Z,27.48
2023-04-21T08:59:36.638Z,27.62
2023-04-21T09:00:37.004Z,27.75
2023-04-21T09:01:36.690Z,27.71
2023-04-21T09:02:36.722Z,27.69
2023-04-21T09:03:36.799Z,27.85
2023-04-21T09:04:36.761Z,27.60
2023-04-21T09:05:40.665Z,27.67
2023-04-21T09:06:37.648Z,28.13
2023-04-21T09:07:36.725Z,28.09
2023-04-21T09:08:36.671Z,28.09
2023-04-21T09:09:36.678Z,28.10
2023-04-21T09:10:36.605Z,28.06
2023-04-21T09:11:37.416Z,28.06
2023-04-21T09:12:36.597Z,28.02
2023-04-21T09:13:36.626Z,28.03
2023-04-21T09:14:36.625Z,28.06
2023-04-21T09:15:36.968Z,28.08
2023-04-21T09:16:36.634Z,28.05
2023-04-21T09:17:36.737Z,27.90
2023-04-21T09:18:36.568Z,27.76
2023-04-21T09:19:36.553Z,27.40
2023-04-21T09:20:36.581Z,27.60
2023-04-21T09:21:36.557Z,27.73
2023-04-21T09:22:36.550Z,27.63
2023-04-21T09:23:36.511Z,27.44
2023-04-21T09:24:36.563Z,27.06
2023-04-21T09:25:36.529Z,26.98
2023-04-21T09:26:36.995Z,27.03
2023-04-21T09:27:36.578Z,27.17
2023-04-21T09:28:36.614Z,27.24
2023-04-21T09:29:36.601Z,27.34
2023-04-21T09:30:36.654Z,27.25
2023-04-21T09:31:36.814Z,27.29
2023-04-21T09:32:36.674Z,27.28
2023-04-21T09:33:42.617Z,27.31
2023-04-21T09:34:37.677Z,27.37
2023-04-21T09:35:36.686Z,27.39
2023-04-21T09:36:36.639Z,27.38
2023-04-21T09:37:36.710Z,27.46
2023-04-21T09:38:36.615Z,27.50
2023-04-21T09:39:49.332Z,27.42
2023-04-21T09:40:37.601Z,27.42
2023-04-21T09:41:37.021Z,27.53
2023-04-21T09:42:39.658Z,27.54
2023-04-21T09:43:36.582Z,26.55
2023-04-21T09:44:47.371Z,26.39
2023-04-21T09:45:40.661Z,26.53
2023-04-21T09:46:36.637Z,26.68
2023-04-21T09:47:36.602Z,26.73
2023-04-21T09:48:36.557Z,26.74
2023-04-21T09:49:36.541Z,26.77
2023-04-21T09:52:37.508Z,26.84
2023-04-21T09:53:36.547Z,26.88
2023-04-21T09:54:36.699Z,26.86
2023-04-21T09:55:36.512Z,26.84
2023-04-21T09:56:36.511Z,26.81
2023-04-21T09:57:36.504Z,26.80
2023-04-21T09:58:36.489Z,26.72
2023-04-21T09:59:36.480Z,26.70
2023-04-21T10:00:36.452Z,26.66
2023-04-21T10:01:36.586Z,26.66
2023-04-21T10:02:36.590Z,26.57
2023-04-21T10:03:36.619Z,26.58
2023-04-21T10:04:36.713Z,26.45
2023-04-21T10:05:37.774Z,26.22
2023-04-21T10:06:36.435Z,26.06
2023-04-21T10:07:36.480Z,25.53
2023-04-21T10:08:36.436Z,25.60
2023-04-21T10:09:36.386Z,24.87
2023-04-21T10:10:36.420Z,24.73
2023-04-21T10:11:36.435Z,24.32
2023-04-21T10:12:36.412Z,24.56
2023-04-21T10:13:36.387Z,24.43
2023-04-21T10:14:37.052Z,24.33
2023-04-21T10:15:36.388Z,24.26
2023-04-21T10:16:36.706Z,24.04
2023-04-21T10:17:36.550Z,24.52
2023-04-21T10:18:36.576Z,24.22
2023-04-21T10:19:36.595Z,24.14
2023-04-21T10:20:36.660Z,24.14
2023-04-21T10:21:37.049Z,24.22
2023-04-21T10:22:36.734Z,24.13
2023-04-21T10:23:36.708Z,24.12
2023-04-21T10:24:36.759Z,24.13
2023-04-21T10:25:36.812Z,24.10
2023-04-21T10:26:36.857Z,24.10
2023-04-21T10:27:36.886Z,24.07
2023-04-21T10:28:37.326Z,24.09
2023-04-21T10:29:52.560Z,24.13
2023-04-21T10:30:37.934Z,24.09
2023-04-21T10:31:36.881Z,24.04
2023-04-21T10:32:37.027Z,24.08
2023-04-21T10:33:36.861Z,24.05
2023-04-21T10:34:36.890Z,24.08
2023-04-21T10:35:36.919Z,24.08
2023-04-21T10:36:37.033Z,24.05
2023-04-21T10:37:36.842Z,24.04
2023-04-21T10:38:36.872Z,24.14
2023-04-21T10:39:36.889Z,24.15
2023-04-21T10:40:44.153Z,24.11
2023-04-21T10:41:38.059Z,24.14
2023-04-21T10:42:36.946Z,24.15
2023-04-21T10:43:36.794Z,24.18
2023-04-21T10:44:36.806Z,24.17
2023-04-21T10:45:36.810Z,24.21
2023-04-21T10:46:36.947Z,24.18
2023-04-21T10:47:36.876Z,24.17
2023-04-21T10:48:36.760Z,24.23
2023-04-21T10:49:36.777Z,24.20
2023-04-21T10:50:38.995Z,24.26
2023-04-21T10:51:36.785Z,24.23
2023-04-21T10:52:36.751Z,24.22
2023-04-21T10:53:36.733Z,24.29
2023-04-21T10:54:36.777Z,24.33
2023-04-21T10:55:36.745Z,24.24
2023-04-21T10:56:38.647Z,24.29
2023-04-21T10:57:37.061Z,24.33
2023-04-21T10:58:36.690Z,24.31
2023-04-21T10:59:36.698Z,24.30
2023-04-21T11:00:36.795Z,24.30
2023-04-21T11:01:36.734Z,24.30
2023-04-21T11:02:39.138Z,24.27
2023-04-21T11:03:36.932Z,24.29
2023-04-21T11:04:37.000Z,24.28
2023-04-21T11:05:36.678Z,24.32
2023-04-21T11:06:36.646Z,24.37
2023-04-21T11:07:37.226Z,24.33
2023-04-21T11:08:38.264Z,24.36
2023-04-21T11:09:36.629Z,24.30
2023-04-21T11:10:36.637Z,24.32
2023-04-21T11:11:36.645Z,24.37
2023-04-21T11:12:37.029Z,24.32
2023-04-21T11:13:36.597Z,24.32
2023-04-21T11:14:37.020Z,24.33
2023-04-21T11:15:36.594Z,24.35
2023-04-21T11:16:36.665Z,24.26
2023-04-21T11:17:37.070Z,24.32
2023-04-21T11:18:36.623Z,24.35
2023-04-21T11:19:36.600Z,24.36
2023-04-21T11:20:36.594Z,24.32
2023-04-21T11:21:36.610Z,24.33
2023-04-21T11:22:37.020Z,24.33
2023-04-21T11:23:36.553Z,24.35
2023-04-21T11:24:36.540Z,24.42
2023-04-21T11:25:36.568Z,24.38
2023-04-21T11:26:36.542Z,24.45
2023-04-21T11:27:36.506Z,24.33
2023-04-21T11:28:36.653Z,24.28
2023-04-21T11:29:36.491Z,24.33
2023-04-21T11:30:36.545Z,24.32
2023-04-21T11:31:36.650Z,24.36
2023-04-21T11:32:38.284Z,24.35
2023-04-21T11:33:36.502Z,24.34
2023-04-21T11:34:36.494Z,24.35
2023-04-21T11:35:36.466Z,24.34
2023-04-21T11:36:36.479Z,24.36
2023-04-21T11:37:36.469Z,24.38
2023-04-21T11:38:36.454Z,24.38
2023-04-21T11:39:36.471Z,24.31
2023-04-21T11:40:36.446Z,24.24
2023-04-21T11:41:36.513Z,24.27
2023-04-21T11:42:36.574Z,24.27
2023-04-21T11:43:36.636Z,24.22
2023-04-21T11:44:36.620Z,24.21
2023-04-21T11:45:36.730Z,24.25
2023-04-21T11:46:36.810Z,24.20
2023-04-21T11:47:36.838Z,24.25
2023-04-21T11:48:36.831Z,24.18
2023-04-21T11:49:36.881Z,24.17
2023-04-21T11:50:36.954Z,24.16
2023-04-21T11:51:37.000Z,24.18
2023-04-21T11:52:37.041Z,24.13
2023-04-21T11:53:37.070Z,24.07
2023-04-21T11:54:37.107Z,24.08
2023-04-21T11:55:37.216Z,24.10
2023-04-21T11:56:37.207Z,24.03
2023-04-21T11:57:37.268Z,23.99
2023-04-21T11:58:37.326Z,24.04
2023-04-21T11:59:37.347Z,24.03
2023-04-21T12:00:37.396Z,24.05
2023-04-21T12:01:37.417Z,23.99
2023-04-21T12:02:37.534Z,23.98
2023-04-21T12:03:37.570Z,23.99
2023-04-21T12:04:37.586Z,23.93
2023-04-21T12:05:37.490Z,23.93
2023-04-21T12:06:37.436Z,23.89
2023-04-21T12:07:37.432Z,23.85
2023-04-21T12:08:37.424Z,23.85
2023-04-21T12:09:37.487Z,23.83
2023-04-21T12:10:37.460Z,23.86
2023-04-21T12:11:37.449Z,23.82
2023-04-21T12:12:37.452Z,23.85
2023-04-21T12:13:37.472Z,23.84
2023-04-21T12:14:37.464Z,23.85
2023-04-21T12:15:37.463Z,23.85
2023-04-21T12:16:37.935Z,23.84
2023-04-21T12:17:37.533Z,23.77
2023-04-21T12:18:37.490Z,23.78
2023-04-21T12:19:37.504Z,23.72
2023-04-21T12:20:37.502Z,23.77
2023-04-21T12:21:37.600Z,23.77
2023-04-21T12:22:37.641Z,23.74
2023-04-21T12:23:37.706Z,23.71
2023-04-21T12:24:37.763Z,23.74
2023-04-21T12:25:37.808Z,23.67
2023-04-21T12:26:37.836Z,23.73
2023-04-21T12:27:37.902Z,23.71
2023-04-21T12:28:37.961Z,23.75
2023-04-21T12:29:38.035Z,23.71
2023-04-21T12:30:40.893Z,23.71
2023-04-21T12:31:38.152Z,23.70
2023-04-21T12:32:38.077Z,23.71
2023-04-21T12:33:38.129Z,23.74
2023-04-21T12:34:38.040Z,23.69
2023-04-21T12:35:38.080Z,23.69
2023-04-21T12:36:38.020Z,23.71
2023-04-21T12:37:38.024Z,23.57
2023-04-21T12:38:38.036Z,23.53
2023-04-21T12:39:38.045Z,23.49
2023-04-21T12:40:38.025Z,23.53
2023-04-21T12:41:38.006Z,23.49
2023-04-21T12:42:38.494Z,23.49
2023-04-21T12:43:37.981Z,23.49
2023-04-21T12:44:38.010Z,23.50
2023-04-21T12:45:37.990Z,23.52
2023-04-21T12:46:37.966Z,23.50
2023-04-21T12:47:38.013Z,23.52
2023-04-21T12:48:37.961Z,23.56
2023-04-21T12:49:37.928Z,23.46
2023-04-21T12:50:38.017Z,23.41
2023-04-21T12:51:38.099Z,23.49
2023-04-21T12:52:38.128Z,23.48
2023-04-21T12:53:38.202Z,23.46
2023-04-21T12:54:38.232Z,23.49